sensor_id;sensor_type;location;lat;lon;timestamp;temperature;humidity
1476;DHT22;730;48.870;12.542;2022-10-04T00:00:39;7.90;7.10
1476;DHT22;730;48.870;12.542;2022-10-04T00:03:22;7.90;6.40
1476;DHT22;730;48.870;12.542;2022-10-04T00:05:53;7.90;6.70
1476;DHT22;730;48.870;12.542;2022-10-04T00:11:12;7.90;6.90
1476;DHT22;730;48.870;12.542;2022-10-04T00:13:39;7.80;6.20
1476;DHT22;730;48.870;12.542;2022-10-04T00:16:06;7.80;7.00
1476;DHT22;730;48.870;12.542;2022-10-04T00:18:44;7.80;7.40
1476;DHT22;730;48.870;12.542;2022-10-04T00:21:10;7.70;7.80
1476;DHT22;730;48.870;12.542;2022-10-04T00:26:04;7.70;8.50
1476;DHT22;730;48.870;12.542;2022-10-04T00:28:41;7.60;7.90
1476;DHT22;730;48.870;12.542;2022-10-04T00:36:38;7.50;9.20
1476;DHT22;730;48.870;12.542;2022-10-04T00:50:26;7.40;7.60
1476;DHT22;730;48.870;12.542;2022-10-04T00:52:56;7.40;7.50
1476;DHT22;730;48.870;12.542;2022-10-04T00:55:43;7.40;7.40
1476;DHT22;730;48.870;12.542;2022-10-04T00:58:19;7.40;7.00
1476;DHT22;730;48.870;12.542;2022-10-04T01:00:47;7.30;6.70
1476;DHT22;730;48.870;12.542;2022-10-04T01:03:58;7.30;6.50
1476;DHT22;730;48.870;12.542;2022-10-04T01:06:06;7.30;6.30
1476;DHT22;730;48.870;12.542;2022-10-04T01:08:47;7.30;5.70
1476;DHT22;730;48.870;12.542;2022-10-04T01:11:46;7.30;5.70
1476;DHT22;730;48.870;12.542;2022-10-04T01:14:29;7.20;5.50
1476;DHT22;730;48.870;12.542;2022-10-04T01:17:00;7.20;5.30
1476;DHT22;730;48.870;12.542;2022-10-04T01:19:30;7.20;4.70
1476;DHT22;730;48.870;12.542;2022-10-04T01:24:32;7.20;4.90
1476;DHT22;730;48.870;12.542;2022-10-04T01:26:59;7.10;4.90
1476;DHT22;730;48.870;12.542;2022-10-04T01:29:27;7.10;5.20
1476;DHT22;730;48.870;12.542;2022-10-04T01:31:55;7.00;5.30
1476;DHT22;730;48.870;12.542;2022-10-04T01:34:24;7.00;5.00
1476;DHT22;730;48.870;12.542;2022-10-04T01:36:52;7.00;5.40
1476;DHT22;730;48.870;12.542;2022-10-04T01:39:20;6.90;5.80
1476;DHT22;730;48.870;12.542;2022-10-04T01:42:09;6.90;6.00
1476;DHT22;730;48.870;12.542;2022-10-04T01:47:39;6.80;6.20
1476;DHT22;730;48.870;12.542;2022-10-04T01:50:08;6.80;6.60
1476;DHT22;730;48.870;12.542;2022-10-04T01:52:44;6.80;6.10
1476;DHT22;730;48.870;12.542;2022-10-04T01:55:12;6.70;6.20
1476;DHT22;730;48.870;12.542;2022-10-04T01:57:49;6.70;6.60
1476;DHT22;730;48.870;12.542;2022-10-04T02:00:19;6.70;6.90
1476;DHT22;730;48.870;12.542;2022-10-04T02:02:50;6.70;7.00
1476;DHT22;730;48.870;12.542;2022-10-04T02:05:27;6.70;6.70
1476;DHT22;730;48.870;12.542;2022-10-04T02:07:55;6.60;6.90
1476;DHT22;730;48.870;12.542;2022-10-04T02:10:21;6.60;6.70
1476;DHT22;730;48.870;12.542;2022-10-04T02:12:50;6.60;6.60
1476;DHT22;730;48.870;12.542;2022-10-04T02:15:18;6.60;6.80
1476;DHT22;730;48.870;12.542;2022-10-04T02:17:45;6.60;6.90
1476;DHT22;730;48.870;12.542;2022-10-04T02:20:20;6.60;7.30
1476;DHT22;730;48.870;12.542;2022-10-04T02:22:50;6.50;7.40
1476;DHT22;730;48.870;12.542;2022-10-04T02:25:18;6.50;7.60
1476;DHT22;730;48.870;12.542;2022-10-04T02:27:44;6.50;7.70
1476;DHT22;730;48.870;12.542;2022-10-04T02:30:11;6.50;7.70
1476;DHT22;730;48.870;12.542;2022-10-04T02:32:40;6.50;7.60
1476;DHT22;730;48.870;12.542;2022-10-04T02:35:23;6.50;7.60
1476;DHT22;730;48.870;12.542;2022-10-04T02:38:16;6.40;7.60
1476;DHT22;730;48.870;12.542;2022-10-04T02:41:15;6.40;7.60
1476;DHT22;730;48.870;12.542;2022-10-04T02:43:53;6.40;7.40
1476;DHT22;730;48.870;12.542;2022-10-04T02:46:27;6.40;7.30
1476;DHT22;730;48.870;12.542;2022-10-04T02:48:58;6.40;6.90
1476;DHT22;730;48.870;12.542;2022-10-04T02:51:49;6.40;6.50
1476;DHT22;730;48.870;12.542;2022-10-04T02:54:30;6.40;6.60
1476;DHT22;730;48.870;12.542;2022-10-04T02:56:58;6.30;6.20
1476;DHT22;730;48.870;12.542;2022-10-04T02:59:24;6.30;6.10
1476;DHT22;730;48.870;12.542;2022-10-04T03:01:58;6.30;6.30
1476;DHT22;730;48.870;12.542;2022-10-04T03:04:36;6.30;6.60
1476;DHT22;730;48.870;12.542;2022-10-04T03:07:06;6.30;6.70
1476;DHT22;730;48.870;12.542;2022-10-04T03:09:33;6.30;6.80
1476;DHT22;730;48.870;12.542;2022-10-04T03:12:01;6.30;6.70
1476;DHT22;730;48.870;12.542;2022-10-04T03:14:29;6.30;6.50
1476;DHT22;730;48.870;12.542;2022-10-04T03:17:00;6.20;6.50
1476;DHT22;730;48.870;12.542;2022-10-04T03:19:29;6.20;6.50
1476;DHT22;730;48.870;12.542;2022-10-04T03:21:58;6.20;6.50
1476;DHT22;730;48.870;12.542;2022-10-04T03:24:45;6.20;6.30
1476;DHT22;730;48.870;12.542;2022-10-04T03:27:18;6.20;6.80
1476;DHT22;730;48.870;12.542;2022-10-04T03:29:45;6.20;6.80
1476;DHT22;730;48.870;12.542;2022-10-04T03:32:13;6.20;6.60
1476;DHT22;730;48.870;12.542;2022-10-04T03:34:42;6.20;6.40
1476;DHT22;730;48.870;12.542;2022-10-04T03:37:15;6.20;6.40
1476;DHT22;730;48.870;12.542;2022-10-04T03:39:44;6.20;6.70
1476;DHT22;730;48.870;12.542;2022-10-04T03:42:13;6.20;6.70
1476;DHT22;730;48.870;12.542;2022-10-04T03:44:40;6.20;7.00
1476;DHT22;730;48.870;12.542;2022-10-04T03:47:09;6.20;6.90
1476;DHT22;730;48.870;12.542;2022-10-04T03:49:37;6.20;7.00
1476;DHT22;730;48.870;12.542;2022-10-04T03:52:06;6.20;7.10
1476;DHT22;730;48.870;12.542;2022-10-04T03:54:37;6.20;7.60
1476;DHT22;730;48.870;12.542;2022-10-04T03:57:05;6.20;7.80
1476;DHT22;730;48.870;12.542;2022-10-04T03:59:32;6.20;7.90
1476;DHT22;730;48.870;12.542;2022-10-04T04:05:12;6.30;9.10
1476;DHT22;730;48.870;12.542;2022-10-04T04:10:32;6.40;9.90
1476;DHT22;730;48.870;12.542;2022-10-04T04:15:36;6.40;10.70
1476;DHT22;730;48.870;12.542;2022-10-04T04:18:04;6.40;10.90
1476;DHT22;730;48.870;12.542;2022-10-04T04:20:38;6.50;11.00
1476;DHT22;730;48.870;12.542;2022-10-04T04:25:46;6.50;11.00
1476;DHT22;730;48.870;12.542;2022-10-04T04:28:29;6.60;11.40
1476;DHT22;730;48.870;12.542;2022-10-04T04:30:59;6.60;11.30
1476;DHT22;730;48.870;12.542;2022-10-04T04:33:39;6.60;11.50
1476;DHT22;730;48.870;12.542;2022-10-04T04:36:08;6.60;11.70
1476;DHT22;730;48.870;12.542;2022-10-04T04:38:35;6.70;11.70
1476;DHT22;730;48.870;12.542;2022-10-04T04:41:22;6.60;11.90
1476;DHT22;730;48.870;12.542;2022-10-04T04:43:49;6.70;11.60
1476;DHT22;730;48.870;12.542;2022-10-04T04:46:15;6.70;11.30
1476;DHT22;730;48.870;12.542;2022-10-04T04:48:44;6.70;10.90
1476;DHT22;730;48.870;12.542;2022-10-04T04:51:21;6.60;10.60
1476;DHT22;730;48.870;12.542;2022-10-04T04:53:48;6.70;10.60
1476;DHT22;730;48.870;12.542;2022-10-04T04:56:21;6.60;10.80
1476;DHT22;730;48.870;12.542;2022-10-04T04:58:49;6.70;11.10
1476;DHT22;730;48.870;12.542;2022-10-04T05:06:28;6.70;11.30
1476;DHT22;730;48.870;12.542;2022-10-04T05:08:54;6.70;11.30
1476;DHT22;730;48.870;12.542;2022-10-04T05:11:21;6.70;11.80
1476;DHT22;730;48.870;12.542;2022-10-04T05:14:02;6.70;11.90
1476;DHT22;730;48.870;12.542;2022-10-04T05:16:40;6.70;12.00
1476;DHT22;730;48.870;12.542;2022-10-04T05:19:21;6.70;12.20
1476;DHT22;730;48.870;12.542;2022-10-04T05:21:50;6.80;12.30
1476;DHT22;730;48.870;12.542;2022-10-04T05:24:30;6.80;12.20
1476;DHT22;730;48.870;12.542;2022-10-04T05:27:02;6.80;12.00
1476;DHT22;730;48.870;12.542;2022-10-04T05:29:35;6.80;12.00
1476;DHT22;730;48.870;12.542;2022-10-04T05:32:26;6.90;12.10
1476;DHT22;730;48.870;12.542;2022-10-04T05:34:55;6.90;12.10
1476;DHT22;730;48.870;12.542;2022-10-04T05:42:42;6.90;12.10
1476;DHT22;730;48.870;12.542;2022-10-04T05:47:42;6.90;12.10
1476;DHT22;730;48.870;12.542;2022-10-04T05:50:25;6.90;11.90
1476;DHT22;730;48.870;12.542;2022-10-04T05:53:19;6.90;12.20
1476;DHT22;730;48.870;12.542;2022-10-04T06:07:36;6.90;12.40
1476;DHT22;730;48.870;12.542;2022-10-04T06:15:36;7.10;12.80
1476;DHT22;730;48.870;12.542;2022-10-04T06:18:15;7.20;12.80
1476;DHT22;730;48.870;12.542;2022-10-04T06:20:49;7.20;12.90
1476;DHT22;730;48.870;12.542;2022-10-04T06:23:19;7.20;12.80
1476;DHT22;730;48.870;12.542;2022-10-04T06:26:10;7.30;12.70
1476;DHT22;730;48.870;12.542;2022-10-04T06:28:47;7.30;12.50
1476;DHT22;730;48.870;12.542;2022-10-04T06:34:15;7.40;12.00
1476;DHT22;730;48.870;12.542;2022-10-04T06:39:52;7.50;12.30
1476;DHT22;730;48.870;12.542;2022-10-04T06:52:57;7.80;11.80
1476;DHT22;730;48.870;12.542;2022-10-04T06:58:23;7.90;12.00
1476;DHT22;730;48.870;12.542;2022-10-04T07:01:11;7.90;11.90
1476;DHT22;730;48.870;12.542;2022-10-04T07:07:11;8.10;10.90
1476;DHT22;730;48.870;12.542;2022-10-04T07:12:22;8.10;10.60
1476;DHT22;730;48.870;12.542;2022-10-04T07:14:51;8.20;10.20
1476;DHT22;730;48.870;12.542;2022-10-04T07:17:28;8.20;9.90
1476;DHT22;730;48.870;12.542;2022-10-04T07:19:55;8.30;9.60
1476;DHT22;730;48.870;12.542;2022-10-04T07:29:59;8.40;9.80
1476;DHT22;730;48.870;12.542;2022-10-04T07:32:33;8.40;9.60
1476;DHT22;730;48.870;12.542;2022-10-04T07:35:11;8.40;9.40
1476;DHT22;730;48.870;12.542;2022-10-04T07:40:31;8.60;10.00
1476;DHT22;730;48.870;12.542;2022-10-04T07:43:07;8.70;9.40
1476;DHT22;730;48.870;12.542;2022-10-04T07:45:38;8.90;8.50
1476;DHT22;730;48.870;12.542;2022-10-04T07:53:20;9.00;7.70
1476;DHT22;730;48.870;12.542;2022-10-04T07:58:44;9.00;7.00
1476;DHT22;730;48.870;12.542;2022-10-04T08:17:25;9.60;7.30
1476;DHT22;730;48.870;12.542;2022-10-04T08:33:03;10.10;4.20
1476;DHT22;730;48.870;12.542;2022-10-04T08:35:37;10.30;3.80
1476;DHT22;730;48.870;12.542;2022-10-04T08:46:17;10.70;2.50
1476;DHT22;730;48.870;12.542;2022-10-04T08:54:39;11.00;2.10
1476;DHT22;730;48.870;12.542;2022-10-04T09:16:45;12.20;1.00
1476;DHT22;730;48.870;12.542;2022-10-04T09:19:18;12.30;1.00
1476;DHT22;730;48.870;12.542;2022-10-04T09:37:43;13.00;1.00
1476;DHT22;730;48.870;12.542;2022-10-04T09:40:46;13.00;1.00
1476;DHT22;730;48.870;12.542;2022-10-04T09:46:17;13.20;1.00
1476;DHT22;730;48.870;12.542;2022-10-04T09:48:53;13.30;1.00
1476;DHT22;730;48.870;12.542;2022-10-04T09:57:06;13.80;1.00
1476;DHT22;730;48.870;12.542;2022-10-04T09:59:36;14.00;1.00
1476;DHT22;730;48.870;12.542;2022-10-04T10:11:03;14.30;1.00
1476;DHT22;730;48.870;12.542;2022-10-04T10:14:17;14.50;1.00
1476;DHT22;730;48.870;12.542;2022-10-04T10:19:57;15.10;1.00
1476;DHT22;730;48.870;12.542;2022-10-04T10:25:35;15.80;1.00
1476;DHT22;730;48.870;12.542;2022-10-04T10:40:30;17.60;1.00
1476;DHT22;730;48.870;12.542;2022-10-04T10:43:05;18.00;1.00
1476;DHT22;730;48.870;12.542;2022-10-04T10:52:13;19.00;1.00
1476;DHT22;730;48.870;12.542;2022-10-04T11:08:34;20.40;1.00
1476;DHT22;730;48.870;12.542;2022-10-04T11:24:45;22.00;1.00
1476;DHT22;730;48.870;12.542;2022-10-04T11:27:34;22.30;1.00
1476;DHT22;730;48.870;12.542;2022-10-04T11:30:24;22.60;1.00
1476;DHT22;730;48.870;12.542;2022-10-04T11:33:27;23.00;1.00
1476;DHT22;730;48.870;12.542;2022-10-04T11:47:51;25.60;1.00
1476;DHT22;730;48.870;12.542;2022-10-04T11:51:01;26.20;1.00
1476;DHT22;730;48.870;12.542;2022-10-04T12:07:47;29.40;1.00
1476;DHT22;730;48.870;12.542;2022-10-04T12:10:26;29.70;1.00
1476;DHT22;730;48.870;12.542;2022-10-04T12:15:41;30.40;1.00
1476;DHT22;730;48.870;12.542;2022-10-04T12:31:33;30.90;1.00
1476;DHT22;730;48.870;12.542;2022-10-04T12:40:22;32.40;1.00
1476;DHT22;730;48.870;12.542;2022-10-04T12:43:06;33.10;1.00
1476;DHT22;730;48.870;12.542;2022-10-04T12:51:21;34.80;1.00
1476;DHT22;730;48.870;12.542;2022-10-04T13:04:37;37.10;1.00
1476;DHT22;730;48.870;12.542;2022-10-04T13:07:17;37.60;1.00
1476;DHT22;730;48.870;12.542;2022-10-04T13:16:07;38.90;1.00
1476;DHT22;730;48.870;12.542;2022-10-04T13:21:06;39.60;1.00
1476;DHT22;730;48.870;12.542;2022-10-04T13:26:40;40.10;1.00
1476;DHT22;730;48.870;12.542;2022-10-04T13:31:54;40.60;1.00
1476;DHT22;730;48.870;12.542;2022-10-04T13:34:29;40.90;1.00
1476;DHT22;730;48.870;12.542;2022-10-04T13:37:32;41.00;1.00
1476;DHT22;730;48.870;12.542;2022-10-04T13:40:13;41.30;1.00
1476;DHT22;730;48.870;12.542;2022-10-04T13:45:53;41.90;1.00
1476;DHT22;730;48.870;12.542;2022-10-04T13:48:32;42.20;1.00
1476;DHT22;730;48.870;12.542;2022-10-04T13:57:19;43.10;1.00
1476;DHT22;730;48.870;12.542;2022-10-04T14:00:01;43.50;1.00
1476;DHT22;730;48.870;12.542;2022-10-04T14:08:14;44.20;1.00
1476;DHT22;730;48.870;12.542;2022-10-04T14:11:00;44.20;1.00
1476;DHT22;730;48.870;12.542;2022-10-04T14:19:22;43.80;1.00
1476;DHT22;730;48.870;12.542;2022-10-04T14:25:16;44.00;1.00
1476;DHT22;730;48.870;12.542;2022-10-04T14:33:53;44.10;1.00
1476;DHT22;730;48.870;12.542;2022-10-04T14:45:12;43.60;1.00
1476;DHT22;730;48.870;12.542;2022-10-04T14:48:17;43.50;1.00
1476;DHT22;730;48.870;12.542;2022-10-04T14:53:53;43.50;1.00
1476;DHT22;730;48.870;12.542;2022-10-04T15:05:25;42.90;1.00
1476;DHT22;730;48.870;12.542;2022-10-04T15:07:32;42.80;1.00
1476;DHT22;730;48.870;12.542;2022-10-04T15:10:16;42.60;1.00
1476;DHT22;730;48.870;12.542;2022-10-04T15:12:54;42.50;1.00
1476;DHT22;730;48.870;12.542;2022-10-04T15:15:39;42.40;1.00
1476;DHT22;730;48.870;12.542;2022-10-04T15:18:32;42.00;1.00
1476;DHT22;730;48.870;12.542;2022-10-04T15:23:53;41.60;1.00
1476;DHT22;730;48.870;12.542;2022-10-04T15:34:40;41.00;1.00
1476;DHT22;730;48.870;12.542;2022-10-04T15:37:33;40.70;1.00
1476;DHT22;730;48.870;12.542;2022-10-04T16:00:21;37.60;1.00
1476;DHT22;730;48.870;12.542;2022-10-04T16:03:12;36.70;1.00
1476;DHT22;730;48.870;12.542;2022-10-04T16:12:20;31.80;1.00
1476;DHT22;730;48.870;12.542;2022-10-04T16:17:43;28.70;1.00
1476;DHT22;730;48.870;12.542;2022-10-04T16:25:46;25.40;1.00
1476;DHT22;730;48.870;12.542;2022-10-04T16:28:44;24.60;1.00
1476;DHT22;730;48.870;12.542;2022-10-04T16:31:20;23.80;1.00
1476;DHT22;730;48.870;12.542;2022-10-04T16:36:57;22.50;1.00
1476;DHT22;730;48.870;12.542;2022-10-04T16:39:36;22.00;1.00
1476;DHT22;730;48.870;12.542;2022-10-04T16:42:27;21.60;1.00
1476;DHT22;730;48.870;12.542;2022-10-04T16:45:30;21.10;1.00
1476;DHT22;730;48.870;12.542;2022-10-04T16:48:01;20.70;1.00
1476;DHT22;730;48.870;12.542;2022-10-04T16:56:13;19.70;1.00
1476;DHT22;730;48.870;12.542;2022-10-04T16:58:48;19.30;1.00
1476;DHT22;730;48.870;12.542;2022-10-04T17:03:58;18.80;1.00
1476;DHT22;730;48.870;12.542;2022-10-04T17:20:43;17.70;1.00
1476;DHT22;730;48.870;12.542;2022-10-04T17:31:51;17.00;1.00
1476;DHT22;730;48.870;12.542;2022-10-04T17:40:35;16.50;1.00
1476;DHT22;730;48.870;12.542;2022-10-04T17:43:16;16.40;1.00
1476;DHT22;730;48.870;12.542;2022-10-04T17:54:43;15.90;1.00
1476;DHT22;730;48.870;12.542;2022-10-04T18:00:49;15.60;1.00
1476;DHT22;730;48.870;12.542;2022-10-04T18:03:21;15.50;1.00
1476;DHT22;730;48.870;12.542;2022-10-04T18:06:00;15.40;1.00
1476;DHT22;730;48.870;12.542;2022-10-04T18:08:57;15.30;1.00
1476;DHT22;730;48.870;12.542;2022-10-04T18:11:45;15.20;1.00
1476;DHT22;730;48.870;12.542;2022-10-04T18:16:57;15.00;1.00
1476;DHT22;730;48.870;12.542;2022-10-04T18:22:16;14.80;1.00
1476;DHT22;730;48.870;12.542;2022-10-04T18:25:17;14.70;1.00
1476;DHT22;730;48.870;12.542;2022-10-04T18:28:21;14.60;1.00
1476;DHT22;730;48.870;12.542;2022-10-04T18:33:19;14.40;1.00
1476;DHT22;730;48.870;12.542;2022-10-04T18:36:16;14.30;1.00
1476;DHT22;730;48.870;12.542;2022-10-04T18:38:57;14.20;1.00
1476;DHT22;730;48.870;12.542;2022-10-04T18:41:25;14.10;1.00
1476;DHT22;730;48.870;12.542;2022-10-04T18:44:15;14.00;1.00
1476;DHT22;730;48.870;12.542;2022-10-04T18:46:45;13.90;1.00
1476;DHT22;730;48.870;12.542;2022-10-04T18:49:23;13.80;1.00
1476;DHT22;730;48.870;12.542;2022-10-04T19:08:38;13.20;1.00
1476;DHT22;730;48.870;12.542;2022-10-04T19:11:21;13.20;1.00
1476;DHT22;730;48.870;12.542;2022-10-04T19:27:37;12.70;1.00
1476;DHT22;730;48.870;12.542;2022-10-04T19:30:17;12.60;1.00
1476;DHT22;730;48.870;12.542;2022-10-04T19:33:05;12.60;1.00
1476;DHT22;730;48.870;12.542;2022-10-04T19:44:28;12.40;1.00
1476;DHT22;730;48.870;12.542;2022-10-04T19:49:49;12.30;1.00
1476;DHT22;730;48.870;12.542;2022-10-04T19:52:40;12.20;1.00
1476;DHT22;730;48.870;12.542;2022-10-04T19:55:17;12.10;1.00
1476;DHT22;730;48.870;12.542;2022-10-04T20:00:34;12.00;1.00
1476;DHT22;730;48.870;12.542;2022-10-04T20:03:00;11.90;1.00
1476;DHT22;730;48.870;12.542;2022-10-04T20:05:26;11.90;1.00
1476;DHT22;730;48.870;12.542;2022-10-04T20:07:56;11.80;1.00
1476;DHT22;730;48.870;12.542;2022-10-04T20:10:36;11.80;1.00
1476;DHT22;730;48.870;12.542;2022-10-04T20:26:07;11.50;1.00
1476;DHT22;730;48.870;12.542;2022-10-04T20:31:07;11.40;1.00
1476;DHT22;730;48.870;12.542;2022-10-04T20:36:00;11.30;1.00
1476;DHT22;730;48.870;12.542;2022-10-04T20:43:57;11.10;1.00
1476;DHT22;730;48.870;12.542;2022-10-04T20:46:32;11.10;1.00
1476;DHT22;730;48.870;12.542;2022-10-04T20:49:03;11.10;1.00
1476;DHT22;730;48.870;12.542;2022-10-04T20:51:30;11.00;1.00
1476;DHT22;730;48.870;12.542;2022-10-04T20:53:59;11.00;1.00
1476;DHT22;730;48.870;12.542;2022-10-04T20:56:30;11.00;1.00
1476;DHT22;730;48.870;12.542;2022-10-04T20:59:01;11.00;1.00
1476;DHT22;730;48.870;12.542;2022-10-04T21:01:29;11.00;1.00
1476;DHT22;730;48.870;12.542;2022-10-04T21:04:18;10.90;1.00
1476;DHT22;730;48.870;12.542;2022-10-04T21:06:52;10.90;1.00
1476;DHT22;730;48.870;12.542;2022-10-04T21:09:18;10.90;1.00
1476;DHT22;730;48.870;12.542;2022-10-04T21:11:45;10.90;1.00
1476;DHT22;730;48.870;12.542;2022-10-04T21:14:22;10.80;1.00
1476;DHT22;730;48.870;12.542;2022-10-04T21:16:50;10.80;1.00
1476;DHT22;730;48.870;12.542;2022-10-04T21:24:54;10.70;1.00
1476;DHT22;730;48.870;12.542;2022-10-04T21:27:28;10.70;1.00
1476;DHT22;730;48.870;12.542;2022-10-04T21:29:55;10.70;1.00
1476;DHT22;730;48.870;12.542;2022-10-04T21:32:21;10.60;1.00
1476;DHT22;730;48.870;12.542;2022-10-04T21:34:47;10.60;1.00
1476;DHT22;730;48.870;12.542;2022-10-04T21:37:13;10.60;1.00
1476;DHT22;730;48.870;12.542;2022-10-04T21:39:39;10.60;1.00
1476;DHT22;730;48.870;12.542;2022-10-04T21:42:05;10.50;1.00
1476;DHT22;730;48.870;12.542;2022-10-04T21:44:30;10.50;1.00
1476;DHT22;730;48.870;12.542;2022-10-04T21:46:56;10.40;1.00
1476;DHT22;730;48.870;12.542;2022-10-04T21:49:21;10.50;1.00
1476;DHT22;730;48.870;12.542;2022-10-04T21:51:47;10.40;1.00
1476;DHT22;730;48.870;12.542;2022-10-04T21:54:13;10.40;1.00
1476;DHT22;730;48.870;12.542;2022-10-04T21:56:38;10.40;1.00
1476;DHT22;730;48.870;12.542;2022-10-04T21:59:04;10.30;1.00
1476;DHT22;730;48.870;12.542;2022-10-04T22:01:29;10.30;1.00
1476;DHT22;730;48.870;12.542;2022-10-04T22:03:55;10.20;1.00
1476;DHT22;730;48.870;12.542;2022-10-04T22:06:21;10.20;1.00
1476;DHT22;730;48.870;12.542;2022-10-04T22:08:46;10.20;1.00
1476;DHT22;730;48.870;12.542;2022-10-04T22:11:12;10.10;1.00
1476;DHT22;730;48.870;12.542;2022-10-04T22:13:38;10.10;1.00
1476;DHT22;730;48.870;12.542;2022-10-04T22:16:04;10.10;1.00
1476;DHT22;730;48.870;12.542;2022-10-04T22:18:30;10.00;1.00
1476;DHT22;730;48.870;12.542;2022-10-04T22:20:56;10.00;1.00
1476;DHT22;730;48.870;12.542;2022-10-04T22:23:25;9.90;1.00
1476;DHT22;730;48.870;12.542;2022-10-04T22:25:52;9.90;1.00
1476;DHT22;730;48.870;12.542;2022-10-04T22:28:29;9.90;1.00
1476;DHT22;730;48.870;12.542;2022-10-04T22:30:55;9.80;1.00
1476;DHT22;730;48.870;12.542;2022-10-04T22:35:58;9.80;1.00
1476;DHT22;730;48.870;12.542;2022-10-04T22:38:29;9.80;1.00
1476;DHT22;730;48.870;12.542;2022-10-04T22:40:56;9.80;1.00
1476;DHT22;730;48.870;12.542;2022-10-04T22:43:23;9.70;1.00
1476;DHT22;730;48.870;12.542;2022-10-04T22:45:48;9.70;1.00
1476;DHT22;730;48.870;12.542;2022-10-04T22:48:14;9.70;1.00
1476;DHT22;730;48.870;12.542;2022-10-04T22:50:40;9.70;1.00
1476;DHT22;730;48.870;12.542;2022-10-04T22:53:26;9.60;1.00
1476;DHT22;730;48.870;12.542;2022-10-04T22:55:53;9.60;1.00
1476;DHT22;730;48.870;12.542;2022-10-04T22:58:20;9.50;1.00
1476;DHT22;730;48.870;12.542;2022-10-04T23:00:46;9.50;1.00
1476;DHT22;730;48.870;12.542;2022-10-04T23:03:30;9.50;1.00
1476;DHT22;730;48.870;12.542;2022-10-04T23:06:01;9.50;1.00
1476;DHT22;730;48.870;12.542;2022-10-04T23:08:27;9.40;1.00
1476;DHT22;730;48.870;12.542;2022-10-04T23:10:57;9.40;1.00
1476;DHT22;730;48.870;12.542;2022-10-04T23:13:24;9.40;1.00
1476;DHT22;730;48.870;12.542;2022-10-04T23:15:50;9.40;1.00
1476;DHT22;730;48.870;12.542;2022-10-04T23:18:16;9.30;1.00
1476;DHT22;730;48.870;12.542;2022-10-04T23:20:44;9.30;1.20
1476;DHT22;730;48.870;12.542;2022-10-04T23:23:13;9.30;1.00
1476;DHT22;730;48.870;12.542;2022-10-04T23:25:46;9.30;1.00
1476;DHT22;730;48.870;12.542;2022-10-04T23:28:17;9.20;1.00
1476;DHT22;730;48.870;12.542;2022-10-04T23:31:34;9.20;1.00
1476;DHT22;730;48.870;12.542;2022-10-04T23:33:35;9.20;1.20
1476;DHT22;730;48.870;12.542;2022-10-04T23:36:01;9.10;1.70
1476;DHT22;730;48.870;12.542;2022-10-04T23:38:27;9.10;2.30
1476;DHT22;730;48.870;12.542;2022-10-04T23:40:53;9.10;2.30
1476;DHT22;730;48.870;12.542;2022-10-04T23:43:22;9.00;2.40
1476;DHT22;730;48.870;12.542;2022-10-04T23:45:54;9.00;2.80
1476;DHT22;730;48.870;12.542;2022-10-04T23:48:25;8.90;2.80
1476;DHT22;730;48.870;12.542;2022-10-04T23:50:53;8.90;2.90
1476;DHT22;730;48.870;12.542;2022-10-04T23:53:29;8.80;3.20
1476;DHT22;730;48.870;12.542;2022-10-04T23:56:03;8.80;3.80
1476;DHT22;730;48.870;12.542;2022-10-04T23:58:38;8.60;3.80
